No particular awareness of the weather is required.    There are no Weather-warnings


Meteo18 Weather Cam more information Meteo18 Weather Cam


Thunder radar more information blitzortung!


Rain radar more information rain snow radar


Visit our other weather sites:

Template documentation
and downloads

And another site



Weather Underground History page Text

Daily Summary for December 08, 2017 Units:  Both    English   Metric
« Previous Day
Next Day »
Daily Weekly Monthly Yearly Custom
  High: Low: Average:
Temperature: 45.9 °F /  7.7 °C 33.4 °F /  0.8 °C 39.2 °F /  4 °C
Dew Point: 45 °F /  7.2 °C 31.1 °F /  -0.5 °C 36 °F /  2.2 °C
Humidity: 97 % 70 % 89 %
Wind Speed: 25 mph /  40.2 km/h - 6 mph /  9.7 km/h
Wind Gust: 33 mph /  53.1 km/h - -
Wind:- - WNW
Pressure: 30.2 in /  1022.2 hPa 30 in /  1016.8 hPa -
Precipitation: 0.05 in /  1.3 mm    
Historical Graphs
 
 
Tabular Data for December 08, 2017
Time Temperature Dew Point Pressure Wind Wind Speed Wind Gust Humidity Rainfall Rate (Hourly)
00:02 44.4 °F /  6.9 °C 43.7 °F /  6.5 °C 30 in /  1017.2 hPa WSW 6 mph /  9.7 km/h 12 mph /  19.3 km/h 97 % 0.03 in /  0.8 mm
00:12 44.8 °F /  7.1 °C 44.1 °F /  6.7 °C 30 in /  1017.2 hPa WSW 9 mph /  14.5 km/h 13 mph /  20.9 km/h 97 % 0.04 in /  1.0 mm
00:17 45 °F /  7.2 °C 44.2 °F /  6.8 °C 30 in /  1016.8 hPa WSW 11 mph /  17.7 km/h 15 mph /  24.1 km/h 97 % 0.04 in /  1.0 mm
00:42 45.5 °F /  7.5 °C 44.8 °F /  7.1 °C 30 in /  1016.8 hPa WSW 4 mph /  6.4 km/h 16 mph /  25.7 km/h 97 % 0.04 in /  1.0 mm
00:52 45.5 °F /  7.5 °C 44.8 °F /  7.1 °C 30 in /  1016.8 hPa West 6 mph /  9.7 km/h 13 mph /  20.9 km/h 97 % 0.03 in /  0.8 mm
00:57 45.5 °F /  7.5 °C 44.8 °F /  7.1 °C 30 in /  1016.8 hPa West 5 mph /  8.0 km/h 11 mph /  17.7 km/h 97 % 0.03 in /  0.8 mm
01:02 45.5 °F /  7.5 °C 44.8 °F /  7.1 °C 30 in /  1017.2 hPa West 4 mph /  6.4 km/h 13 mph /  20.9 km/h 97 % 0.02 in /  0.5 mm
01:07 45.7 °F /  7.6 °C 45 °F /  7.2 °C 30 in /  1016.8 hPa West 6 mph /  9.7 km/h 13 mph /  20.9 km/h 97 % 0.01 in /  0.3 mm
01:17 45.7 °F /  7.6 °C 45 °F /  7.2 °C 30 in /  1016.8 hPa West 7 mph /  11.3 km/h 12 mph /  19.3 km/h 97 % 0.01 in /  0.3 mm
01:22 45.7 °F /  7.6 °C 44.6 °F /  7.0 °C 30 in /  1016.8 hPa West 2 mph /  3.2 km/h 12 mph /  19.3 km/h 96 % 0 in /  0.0 mm
01:27 45.9 °F /  7.7 °C 44.8 °F /  7.1 °C 30 in /  1016.8 hPa NNW 9 mph /  14.5 km/h 12 mph /  19.3 km/h 96 % 0 in /  0.0 mm
01:47 45.3 °F /  7.4 °C 44.1 °F /  6.7 °C 30 in /  1017.2 hPa NNW 3 mph /  4.8 km/h 7 mph /  11.3 km/h 95 % 0 in /  0.0 mm
01:57 45 °F /  7.2 °C 43 °F /  6.1 °C 30.1 in /  1017.5 hPa WNW 4 mph /  6.4 km/h 10 mph /  16.1 km/h 93 % 0 in /  0.0 mm
02:02 44.8 °F /  7.1 °C 42.8 °F /  6.0 °C 30.1 in /  1017.5 hPa NNW 6 mph /  9.7 km/h 12 mph /  19.3 km/h 93 % 0 in /  0.0 mm
02:07 44.6 °F /  7.0 °C 42.6 °F /  5.9 °C 30.1 in /  1017.5 hPa North 5 mph /  8.0 km/h 12 mph /  19.3 km/h 93 % 0 in /  0.0 mm
02:12 44.4 °F /  6.9 °C 42.3 °F /  5.7 °C 30.1 in /  1017.5 hPa NNW 3 mph /  4.8 km/h 11 mph /  17.7 km/h 92 % 0 in /  0.0 mm
02:22 44.4 °F /  6.9 °C 42.3 °F /  5.7 °C 30.1 in /  1017.5 hPa West 1 mph /  1.6 km/h 7 mph /  11.3 km/h 92 % 0 in /  0.0 mm
02:27 44.2 °F /  6.8 °C 42.1 °F /  5.6 °C 30.1 in /  1017.5 hPa WNW 2 mph /  3.2 km/h 7 mph /  11.3 km/h 92 % 0 in /  0.0 mm
02:42 44.2 °F /  6.8 °C 42.1 °F /  5.6 °C 30.1 in /  1017.8 hPa Calm   4 mph /  6.4 km/h 92 % 0 in /  0.0 mm
02:47 44.1 °F /  6.7 °C 41.9 °F /  5.5 °C 30.1 in /  1017.8 hPa Calm   5 mph /  8.0 km/h 92 % 0 in /  0.0 mm
03:02 44.1 °F /  6.7 °C 41.5 °F /  5.3 °C 30.1 in /  1017.8 hPa WNW 2 mph /  3.2 km/h 4 mph /  6.4 km/h 91 % 0 in /  0.0 mm
03:17 43.7 °F /  6.5 °C 41.2 °F /  5.1 °C 30.1 in /  1018.2 hPa WNW 2 mph /  3.2 km/h 7 mph /  11.3 km/h 91 % 0 in /  0.0 mm
03:22 43.5 °F /  6.4 °C 41 °F /  5.0 °C 30.1 in /  1018.2 hPa WNW 3 mph /  4.8 km/h 7 mph /  11.3 km/h 91 % 0 in /  0.0 mm
03:27 43.3 °F /  6.3 °C 41.2 °F /  5.1 °C 30.1 in /  1018.2 hPa WNW 3 mph /  4.8 km/h 7 mph /  11.3 km/h 92 % 0 in /  0.0 mm
03:32 43.2 °F /  6.2 °C 41 °F /  5.0 °C 30.1 in /  1018.2 hPa WNW 2 mph /  3.2 km/h 7 mph /  11.3 km/h 92 % 0 in /  0.0 mm
03:42 42.8 °F /  6.0 °C 40.6 °F /  4.8 °C 30.1 in /  1018.5 hPa WNW 3 mph /  4.8 km/h 8 mph /  12.9 km/h 92 % 0 in /  0.0 mm
04:02 41.9 °F /  5.5 °C 39.7 °F /  4.3 °C 30.1 in /  1018.5 hPa WNW 3 mph /  4.8 km/h 8 mph /  12.9 km/h 92 % 0 in /  0.0 mm
04:07 41.9 °F /  5.5 °C 39.7 °F /  4.3 °C 30.1 in /  1018.5 hPa WNW 5 mph /  8.0 km/h 8 mph /  12.9 km/h 92 % 0 in /  0.0 mm
04:17 41.7 °F /  5.4 °C 39.6 °F /  4.2 °C 30.1 in /  1018.8 hPa WNW 2 mph /  3.2 km/h 9 mph /  14.5 km/h 92 % 0 in /  0.0 mm
04:22 41.7 °F /  5.4 °C 39.6 °F /  4.2 °C 30.1 in /  1018.8 hPa NW 4 mph /  6.4 km/h 8 mph /  12.9 km/h 92 % 0 in /  0.0 mm
04:27 41.5 °F /  5.3 °C 39.4 °F /  4.1 °C 30.1 in /  1018.8 hPa West 2 mph /  3.2 km/h 7 mph /  11.3 km/h 92 % 0 in /  0.0 mm
04:37 41.5 °F /  5.3 °C 39.4 °F /  4.1 °C 30.1 in /  1018.8 hPa WNW 8 mph /  12.9 km/h 8 mph /  12.9 km/h 92 % 0 in /  0.0 mm
04:42 41.5 °F /  5.3 °C 39.4 °F /  4.1 °C 30.1 in /  1018.8 hPa West 3 mph /  4.8 km/h 9 mph /  14.5 km/h 92 % 0 in /  0.0 mm
04:52 41.2 °F /  5.1 °C 39 °F /  3.9 °C 30.1 in /  1018.8 hPa WNW 2 mph /  3.2 km/h 9 mph /  14.5 km/h 92 % 0 in /  0.0 mm
04:57 41.2 °F /  5.1 °C 39 °F /  3.9 °C 30.1 in /  1018.8 hPa WSW 2 mph /  3.2 km/h 6 mph /  9.7 km/h 92 % 0 in /  0.0 mm
05:02 41 °F /  5.0 °C 38.7 °F /  3.7 °C 30.1 in /  1018.8 hPa WNW 3 mph /  4.8 km/h 6 mph /  9.7 km/h 91 % 0 in /  0.0 mm
05:12 40.6 °F /  4.8 °C 38.3 °F /  3.5 °C 30.1 in /  1018.8 hPa WNW 2 mph /  3.2 km/h 5 mph /  8.0 km/h 91 % 0 in /  0.0 mm
05:17 40.5 °F /  4.7 °C 38.3 °F /  3.5 °C 30.1 in /  1018.8 hPa West 3 mph /  4.8 km/h 5 mph /  8.0 km/h 92 % 0 in /  0.0 mm
05:22 40.3 °F /  4.6 °C 38.1 °F /  3.4 °C 30.1 in /  1019.2 hPa Calm   5 mph /  8.0 km/h 92 % 0 in /  0.0 mm
05:32 39.7 °F /  4.3 °C 37.6 °F /  3.1 °C 30.1 in /  1019.2 hPa West 2 mph /  3.2 km/h 5 mph /  8.0 km/h 92 % 0 in /  0.0 mm
05:42 39.4 °F /  4.1 °C 37.6 °F /  3.1 °C 30.1 in /  1019.2 hPa West 3 mph /  4.8 km/h 5 mph /  8.0 km/h 93 % 0 in /  0.0 mm
05:47 39.4 °F /  4.1 °C 37.6 °F /  3.1 °C 30.1 in /  1019.2 hPa WNW 4 mph /  6.4 km/h 6 mph /  9.7 km/h 93 % 0 in /  0.0 mm
05:52 39.4 °F /  4.1 °C 37.6 °F /  3.1 °C 30.1 in /  1019.2 hPa West 2 mph /  3.2 km/h 9 mph /  14.5 km/h 93 % 0 in /  0.0 mm
05:57 39.4 °F /  4.1 °C 37.6 °F /  3.1 °C 30.1 in /  1019.2 hPa West 2 mph /  3.2 km/h 9 mph /  14.5 km/h 93 % 0 in /  0.0 mm
06:12 39 °F /  3.9 °C 37.2 °F /  2.9 °C 30.1 in /  1019.2 hPa West 6 mph /  9.7 km/h 6 mph /  9.7 km/h 93 % 0 in /  0.0 mm
06:17 39 °F /  3.9 °C 37.2 °F /  2.9 °C 30.1 in /  1019.2 hPa WNW 1 mph /  1.6 km/h 6 mph /  9.7 km/h 93 % 0 in /  0.0 mm
06:32 38.8 °F /  3.8 °C 37 °F /  2.8 °C 30.1 in /  1019.2 hPa West 2 mph /  3.2 km/h 6 mph /  9.7 km/h 93 % 0 in /  0.0 mm
06:42 38.8 °F /  3.8 °C 37.2 °F /  2.9 °C 30.1 in /  1019.2 hPa West 4 mph /  6.4 km/h 6 mph /  9.7 km/h 94 % 0 in /  0.0 mm
06:47 38.8 °F /  3.8 °C 37.2 °F /  2.9 °C 30.1 in /  1019.2 hPa West 2 mph /  3.2 km/h 6 mph /  9.7 km/h 94 % 0 in /  0.0 mm
06:57 39 °F /  3.9 °C 37.4 °F /  3.0 °C 30.1 in /  1019.2 hPa West 3 mph /  4.8 km/h 7 mph /  11.3 km/h 94 % 0 in /  0.0 mm
07:02 39 °F /  3.9 °C 37.4 °F /  3.0 °C 30.1 in /  1019.2 hPa West 4 mph /  6.4 km/h 9 mph /  14.5 km/h 94 % 0 in /  0.0 mm
07:12 39.4 °F /  4.1 °C 37.6 °F /  3.1 °C 30.1 in /  1019.2 hPa West 3 mph /  4.8 km/h 8 mph /  12.9 km/h 93 % 0 in /  0.0 mm
07:17 39.4 °F /  4.1 °C 37.6 °F /  3.1 °C 30.1 in /  1019.2 hPa West 6 mph /  9.7 km/h 8 mph /  12.9 km/h 93 % 0 in /  0.0 mm
07:27 39.4 °F /  4.1 °C 37.6 °F /  3.1 °C 30.1 in /  1019.5 hPa West 6 mph /  9.7 km/h 9 mph /  14.5 km/h 93 % 0 in /  0.0 mm
07:37 39.7 °F /  4.3 °C 37.6 °F /  3.1 °C 30.1 in /  1019.2 hPa West 6 mph /  9.7 km/h 13 mph /  20.9 km/h 92 % 0 in /  0.0 mm
07:42 39.7 °F /  4.3 °C 37.4 °F /  3.0 °C 30.1 in /  1019.2 hPa West 3 mph /  4.8 km/h 13 mph /  20.9 km/h 91 % 0 in /  0.0 mm
07:47 39.7 °F /  4.3 °C 37.4 °F /  3.0 °C 30.1 in /  1019.2 hPa West 4 mph /  6.4 km/h 13 mph /  20.9 km/h 91 % 0 in /  0.0 mm
07:57 39.7 °F /  4.3 °C 36.7 °F /  2.6 °C 30.1 in /  1019.2 hPa West 8 mph /  12.9 km/h 9 mph /  14.5 km/h 89 % 0 in /  0.0 mm
08:07 39.6 °F /  4.2 °C 36.9 °F /  2.7 °C 30.1 in /  1019.2 hPa West 5 mph /  8.0 km/h 12 mph /  19.3 km/h 90 % 0 in /  0.0 mm
08:12 39.4 °F /  4.1 °C 37 °F /  2.8 °C 30.1 in /  1019.2 hPa WSW 10 mph /  16.1 km/h 12 mph /  19.3 km/h 91 % 0 in /  0.0 mm
08:27 39.6 °F /  4.2 °C 37.4 °F /  3.0 °C 30.1 in /  1019.5 hPa West 10 mph /  16.1 km/h 13 mph /  20.9 km/h 92 % 0 in /  0.0 mm
08:32 39.7 °F /  4.3 °C 37.6 °F /  3.1 °C 30.1 in /  1019.5 hPa West 11 mph /  17.7 km/h 13 mph /  20.9 km/h 92 % 0 in /  0.0 mm
08:37 39.9 °F /  4.4 °C 37.8 °F /  3.2 °C 30.1 in /  1019.5 hPa West 8 mph /  12.9 km/h 14 mph /  22.5 km/h 92 % 0 in /  0.0 mm
08:47 39.9 °F /  4.4 °C 37.6 °F /  3.1 °C 30.1 in /  1019.5 hPa West 8 mph /  12.9 km/h 14 mph /  22.5 km/h 91 % 0 in /  0.0 mm
08:52 39.7 °F /  4.3 °C 37.6 °F /  3.1 °C 30.1 in /  1019.5 hPa WSW 4 mph /  6.4 km/h 12 mph /  19.3 km/h 92 % 0 in /  0.0 mm
08:57 39.6 °F /  4.2 °C 37.4 °F /  3.0 °C 30.1 in /  1019.5 hPa West 5 mph /  8.0 km/h 12 mph /  19.3 km/h 92 % 0 in /  0.0 mm
09:02 39.6 °F /  4.2 °C 37.4 °F /  3.0 °C 30.1 in /  1019.2 hPa WSW 4 mph /  6.4 km/h 12 mph /  19.3 km/h 92 % 0 in /  0.0 mm
09:12 39 °F /  3.9 °C 36.9 °F /  2.7 °C 30.1 in /  1019.9 hPa West 3 mph /  4.8 km/h 11 mph /  17.7 km/h 92 % 0 in /  0.0 mm
09:17 39 °F /  3.9 °C 37.2 °F /  2.9 °C 30.1 in /  1019.9 hPa WSW 3 mph /  4.8 km/h 9 mph /  14.5 km/h 93 % 0 in /  0.0 mm
09:32 39.7 °F /  4.3 °C 37.4 °F /  3.0 °C 30.1 in /  1019.9 hPa WNW 7 mph /  11.3 km/h 10 mph /  16.1 km/h 91 % 0 in /  0.0 mm
09:42 40.5 °F /  4.7 °C 38.1 °F /  3.4 °C 30.1 in /  1020.2 hPa WNW 6 mph /  9.7 km/h 14 mph /  22.5 km/h 91 % 0 in /  0.0 mm
09:47 40.8 °F /  4.9 °C 38.1 °F /  3.4 °C 30.1 in /  1020.2 hPa WNW 11 mph /  17.7 km/h 17 mph /  27.4 km/h 90 % 0 in /  0.0 mm
09:52 41 °F /  5.0 °C 38.3 °F /  3.5 °C 30.1 in /  1020.2 hPa WNW 4 mph /  6.4 km/h 20 mph /  32.2 km/h 90 % 0 in /  0.0 mm
09:57 40.8 °F /  4.9 °C 38.1 °F /  3.4 °C 30.1 in /  1020.2 hPa West 7 mph /  11.3 km/h 20 mph /  32.2 km/h 90 % 0 in /  0.0 mm
10:02 40.6 °F /  4.8 °C 37.9 °F /  3.3 °C 30.1 in /  1020.5 hPa WNW 12 mph /  19.3 km/h 20 mph /  32.2 km/h 90 % 0 in /  0.0 mm
10:12 40.3 °F /  4.6 °C 37.9 °F /  3.3 °C 30.1 in /  1020.2 hPa West 6 mph /  9.7 km/h 18 mph /  29.0 km/h 91 % 0 in /  0.0 mm
10:17 40.1 °F /  4.5 °C 37.4 °F /  3.0 °C 30.1 in /  1020.2 hPa West 5 mph /  8.0 km/h 16 mph /  25.7 km/h 90 % 0.01 in /  0.3 mm
10:27 40.1 °F /  4.5 °C 37.4 °F /  3.0 °C 30.1 in /  1020.2 hPa West 6 mph /  9.7 km/h 14 mph /  22.5 km/h 90 % 0.01 in /  0.3 mm
10:32 40.1 °F /  4.5 °C 37 °F /  2.8 °C 30.1 in /  1020.5 hPa West 8 mph /  12.9 km/h 14 mph /  22.5 km/h 89 % 0.01 in /  0.3 mm
10:42 40.5 °F /  4.7 °C 37.2 °F /  2.9 °C 30.1 in /  1020.5 hPa West 6 mph /  9.7 km/h 11 mph /  17.7 km/h 88 % 0.01 in /  0.3 mm
10:47 40.5 °F /  4.7 °C 37.4 °F /  3.0 °C 30.1 in /  1020.5 hPa West 4 mph /  6.4 km/h 11 mph /  17.7 km/h 89 % 0.01 in /  0.3 mm
10:57 41 °F /  5.0 °C 37.9 °F /  3.3 °C 30.2 in /  1020.9 hPa West 7 mph /  11.3 km/h 10 mph /  16.1 km/h 89 % 0.01 in /  0.3 mm
11:12 41.5 °F /  5.3 °C 38.3 °F /  3.5 °C 30.2 in /  1020.9 hPa West 4 mph /  6.4 km/h 12 mph /  19.3 km/h 88 % 0 in /  0.0 mm
11:27 41.7 °F /  5.4 °C 38.1 °F /  3.4 °C 30.2 in /  1021.2 hPa West 6 mph /  9.7 km/h 18 mph /  29.0 km/h 87 % 0 in /  0.0 mm
11:32 41.7 °F /  5.4 °C 37.8 °F /  3.2 °C 30.2 in /  1021.2 hPa West 9 mph /  14.5 km/h 18 mph /  29.0 km/h 86 % 0 in /  0.0 mm
11:42 42.1 °F /  5.6 °C 37.6 °F /  3.1 °C 30.2 in /  1020.9 hPa WNW 5 mph /  8.0 km/h 13 mph /  20.9 km/h 84 % 0 in /  0.0 mm
11:47 42.3 °F /  5.7 °C 38.3 °F /  3.5 °C 30.2 in /  1020.9 hPa West 9 mph /  14.5 km/h 13 mph /  20.9 km/h 86 % 0 in /  0.0 mm
11:57 42.3 °F /  5.7 °C 37.8 °F /  3.2 °C 30.2 in /  1020.9 hPa WNW 4 mph /  6.4 km/h 15 mph /  24.1 km/h 84 % 0 in /  0.0 mm
12:02 42.3 °F /  5.7 °C 37.4 °F /  3.0 °C 30.2 in /  1020.9 hPa SW 6 mph /  9.7 km/h 15 mph /  24.1 km/h 83 % 0 in /  0.0 mm
12:12 42.3 °F /  5.7 °C 37.4 °F /  3.0 °C 30.2 in /  1020.9 hPa WSW 9 mph /  14.5 km/h 17 mph /  27.4 km/h 83 % 0 in /  0.0 mm
12:17 42.3 °F /  5.7 °C 37.4 °F /  3.0 °C 30.2 in /  1020.9 hPa West 8 mph /  12.9 km/h 17 mph /  27.4 km/h 83 % 0 in /  0.0 mm
12:22 42.1 °F /  5.6 °C 37 °F /  2.8 °C 30.2 in /  1020.9 hPa WSW 11 mph /  17.7 km/h 17 mph /  27.4 km/h 82 % 0 in /  0.0 mm
12:32 42.3 °F /  5.7 °C 36.5 °F /  2.5 °C 30.1 in /  1020.5 hPa West 9 mph /  14.5 km/h 17 mph /  27.4 km/h 80 % 0 in /  0.0 mm
12:42 42.4 °F /  5.8 °C 36.7 °F /  2.6 °C 30.1 in /  1020.5 hPa West 11 mph /  17.7 km/h 18 mph /  29.0 km/h 80 % 0 in /  0.0 mm
12:47 42.4 °F /  5.8 °C 37 °F /  2.8 °C 30.1 in /  1020.5 hPa WSW 7 mph /  11.3 km/h 18 mph /  29.0 km/h 81 % 0 in /  0.0 mm
13:02 42.3 °F /  5.7 °C 36.9 °F /  2.7 °C 30.1 in /  1020.5 hPa West 5 mph /  8.0 km/h 18 mph /  29.0 km/h 81 % 0 in /  0.0 mm
13:07 42.4 °F /  5.8 °C 36.7 °F /  2.6 °C 30.1 in /  1020.5 hPa WNW 10 mph /  16.1 km/h 18 mph /  29.0 km/h 80 % 0 in /  0.0 mm
13:12 42.4 °F /  5.8 °C 36.3 °F /  2.4 °C 30.1 in /  1020.5 hPa WNW 9 mph /  14.5 km/h 18 mph /  29.0 km/h 79 % 0 in /  0.0 mm
13:17 42.6 °F /  5.9 °C 36 °F /  2.2 °C 30.1 in /  1020.5 hPa NW 13 mph /  20.9 km/h 18 mph /  29.0 km/h 77 % 0 in /  0.0 mm
13:22 42.4 °F /  5.8 °C 36.1 °F /  2.3 °C 30.1 in /  1020.5 hPa West 12 mph /  19.3 km/h 18 mph /  29.0 km/h 78 % 0 in /  0.0 mm
13:27 42.6 °F /  5.9 °C 36.3 °F /  2.4 °C 30.1 in /  1020.5 hPa West 9 mph /  14.5 km/h 18 mph /  29.0 km/h 78 % 0 in /  0.0 mm
13:37 42.8 °F /  6.0 °C 35.4 °F /  1.9 °C 30.1 in /  1020.2 hPa West 10 mph /  16.1 km/h 19 mph /  30.6 km/h 75 % 0 in /  0.0 mm
13:52 42.4 °F /  5.8 °C 34 °F /  1.1 °C 30.1 in /  1020.2 hPa West 11 mph /  17.7 km/h 22 mph /  35.4 km/h 72 % 0 in /  0.0 mm
13:57 42.3 °F /  5.7 °C 33.8 °F /  1.0 °C 30.1 in /  1019.9 hPa West 7 mph /  11.3 km/h 22 mph /  35.4 km/h 72 % 0 in /  0.0 mm
14:02 42.1 °F /  5.6 °C 33.8 °F /  1.0 °C 30.1 in /  1020.2 hPa NW 14 mph /  22.5 km/h 22 mph /  35.4 km/h 72 % 0 in /  0.0 mm
14:12 42.1 °F /  5.6 °C 34 °F /  1.1 °C 30.1 in /  1020.2 hPa WSW 6 mph /  9.7 km/h 18 mph /  29.0 km/h 73 % 0 in /  0.0 mm
14:22 42.1 °F /  5.6 °C 33.4 °F /  0.8 °C 30.1 in /  1020.2 hPa West 17 mph /  27.4 km/h 19 mph /  30.6 km/h 71 % 0 in /  0.0 mm
14:27 42.1 °F /  5.6 °C 33.8 °F /  1.0 °C 30.1 in /  1020.2 hPa West 17 mph /  27.4 km/h 19 mph /  30.6 km/h 72 % 0 in /  0.0 mm
14:32 42.1 °F /  5.6 °C 33.8 °F /  1.0 °C 30.1 in /  1020.2 hPa NW 8 mph /  12.9 km/h 19 mph /  30.6 km/h 72 % 0 in /  0.0 mm
14:42 42.3 °F /  5.7 °C 33.8 °F /  1.0 °C 30.1 in /  1019.9 hPa West 4 mph /  6.4 km/h 19 mph /  30.6 km/h 72 % 0 in /  0.0 mm
14:57 42.6 °F /  5.9 °C 34.2 °F /  1.2 °C 30.1 in /  1019.9 hPa WSW 5 mph /  8.0 km/h 17 mph /  27.4 km/h 72 % 0 in /  0.0 mm
15:02 42.6 °F /  5.9 °C 34.2 °F /  1.2 °C 30.1 in /  1019.9 hPa WNW 5 mph /  8.0 km/h 16 mph /  25.7 km/h 72 % 0 in /  0.0 mm
15:12 42.3 °F /  5.7 °C 33.6 °F /  0.9 °C 30.1 in /  1019.9 hPa West 8 mph /  12.9 km/h 16 mph /  25.7 km/h 71 % 0 in /  0.0 mm
15:27 42.3 °F /  5.7 °C 33.8 °F /  1.0 °C 30.1 in /  1019.9 hPa WNW 10 mph /  16.1 km/h 16 mph /  25.7 km/h 72 % 0 in /  0.0 mm
15:32 42.4 °F /  5.8 °C 33.6 °F /  0.9 °C 30.1 in /  1019.9 hPa WNW 7 mph /  11.3 km/h 16 mph /  25.7 km/h 71 % 0 in /  0.0 mm
15:42 41.9 °F /  5.5 °C 33.3 °F /  0.7 °C 30.1 in /  1019.5 hPa WNW 9 mph /  14.5 km/h 21 mph /  33.8 km/h 71 % 0 in /  0.0 mm
15:52 41.5 °F /  5.3 °C 33.3 °F /  0.7 °C 30.1 in /  1019.9 hPa WNW 16 mph /  25.7 km/h 21 mph /  33.8 km/h 72 % 0 in /  0.0 mm
15:57 41.4 °F /  5.2 °C 32.4 °F /  0.2 °C 30.1 in /  1019.9 hPa WNW 25 mph /  40.2 km/h 25 mph /  40.2 km/h 70 % 0 in /  0.0 mm
16:02 39.9 °F /  4.4 °C 32.9 °F /  0.5 °C 30.1 in /  1020.2 hPa West 11 mph /  17.7 km/h 33 mph /  53.1 km/h 76 % 0 in /  0.0 mm
16:12 38.7 °F /  3.7 °C 32.4 °F /  0.2 °C 30.1 in /  1019.9 hPa West 9 mph /  14.5 km/h 33 mph /  53.1 km/h 78 % 0 in /  0.0 mm
16:17 38.7 °F /  3.7 °C 32.7 °F /  0.4 °C 30.1 in /  1019.9 hPa WNW 7 mph /  11.3 km/h 25 mph /  40.2 km/h 79 % 0 in /  0.0 mm
16:42 38.8 °F /  3.8 °C 33.4 °F /  0.8 °C 30.1 in /  1019.9 hPa WNW 5 mph /  8.0 km/h 7 mph /  11.3 km/h 81 % 0 in /  0.0 mm
17:02 36.1 °F /  2.3 °C 32.4 °F /  0.2 °C 30.1 in /  1020.5 hPa NW 10 mph /  16.1 km/h 19 mph /  30.6 km/h 86 % 0 in /  0.0 mm
17:07 34.5 °F /  1.4 °C 31.6 °F /  -0.2 °C 30.2 in /  1020.9 hPa WNW 8 mph /  12.9 km/h 26 mph /  41.8 km/h 89 % 0 in /  0.0 mm
17:17 34 °F /  1.1 °C 32.2 °F /  0.1 °C 30.2 in /  1020.9 hPa NW 4 mph /  6.4 km/h 26 mph /  41.8 km/h 93 % 0 in /  0.0 mm
17:22 34 °F /  1.1 °C 32.2 °F /  0.1 °C 30.2 in /  1020.9 hPa NNW 3 mph /  4.8 km/h 11 mph /  17.7 km/h 93 % 0 in /  0.0 mm
17:27 34 °F /  1.1 °C 32.2 °F /  0.1 °C 30.2 in /  1020.9 hPa WNW 3 mph /  4.8 km/h 11 mph /  17.7 km/h 93 % 0 in /  0.0 mm
17:32 34 °F /  1.1 °C 32.2 °F /  0.1 °C 30.2 in /  1020.9 hPa WNW 4 mph /  6.4 km/h 11 mph /  17.7 km/h 93 % 0 in /  0.0 mm
17:42 34 °F /  1.1 °C 32.2 °F /  0.1 °C 30.2 in /  1020.9 hPa WNW 7 mph /  11.3 km/h 12 mph /  19.3 km/h 93 % 0 in /  0.0 mm
17:47 34.2 °F /  1.2 °C 32.4 °F /  0.2 °C 30.2 in /  1020.9 hPa WNW 4 mph /  6.4 km/h 12 mph /  19.3 km/h 93 % 0 in /  0.0 mm
17:57 34.3 °F /  1.3 °C 32.2 °F /  0.1 °C 30.2 in /  1020.9 hPa WNW 2 mph /  3.2 km/h 11 mph /  17.7 km/h 92 % 0 in /  0.0 mm
18:07 34.3 °F /  1.3 °C 32.2 °F /  0.1 °C 30.2 in /  1020.9 hPa West 6 mph /  9.7 km/h 10 mph /  16.1 km/h 92 % 0 in /  0.0 mm
18:12 34.5 °F /  1.4 °C 32.2 °F /  0.1 °C 30.2 in /  1020.9 hPa NW 4 mph /  6.4 km/h 10 mph /  16.1 km/h 91 % 0 in /  0.0 mm
18:17 34.7 °F /  1.5 °C 32.4 °F /  0.2 °C 30.2 in /  1020.9 hPa West 6 mph /  9.7 km/h 9 mph /  14.5 km/h 91 % 0 in /  0.0 mm
18:22 34.9 °F /  1.6 °C 32.2 °F /  0.1 °C 30.2 in /  1020.9 hPa West 5 mph /  8.0 km/h 9 mph /  14.5 km/h 90 % 0 in /  0.0 mm
18:27 34.9 °F /  1.6 °C 32.2 °F /  0.1 °C 30.2 in /  1020.9 hPa West 7 mph /  11.3 km/h 11 mph /  17.7 km/h 90 % 0 in /  0.0 mm
18:32 34.9 °F /  1.6 °C 32.2 °F /  0.1 °C 30.2 in /  1020.9 hPa WNW 2 mph /  3.2 km/h 11 mph /  17.7 km/h 90 % 0 in /  0.0 mm
18:42 34.9 °F /  1.6 °C 32.2 °F /  0.1 °C 30.2 in /  1020.9 hPa West 3 mph /  4.8 km/h 9 mph /  14.5 km/h 90 % 0 in /  0.0 mm
18:57 34.9 °F /  1.6 °C 32.5 °F /  0.3 °C 30.2 in /  1021.2 hPa WNW 9 mph /  14.5 km/h 9 mph /  14.5 km/h 91 % 0 in /  0.0 mm
19:02 34.9 °F /  1.6 °C 32.5 °F /  0.3 °C 30.2 in /  1021.2 hPa WNW 10 mph /  16.1 km/h 20 mph /  32.2 km/h 91 % 0 in /  0.0 mm
19:12 34.9 °F /  1.6 °C 32.5 °F /  0.3 °C 30.2 in /  1021.2 hPa WNW 9 mph /  14.5 km/h 20 mph /  32.2 km/h 91 % 0.01 in /  0.3 mm
19:17 34.9 °F /  1.6 °C 32.5 °F /  0.3 °C 30.2 in /  1021.2 hPa West 7 mph /  11.3 km/h 18 mph /  29.0 km/h 91 % 0.02 in /  0.5 mm
19:27 34.9 °F /  1.6 °C 32.2 °F /  0.1 °C 30.2 in /  1021.2 hPa West 4 mph /  6.4 km/h 18 mph /  29.0 km/h 90 % 0.02 in /  0.5 mm
19:32 34.9 °F /  1.6 °C 32.5 °F /  0.3 °C 30.2 in /  1021.2 hPa WNW 5 mph /  8.0 km/h 12 mph /  19.3 km/h 91 % 0.02 in /  0.5 mm
19:42 34.5 °F /  1.4 °C 32.2 °F /  0.1 °C 30.2 in /  1021.6 hPa West 4 mph /  6.4 km/h 11 mph /  17.7 km/h 91 % 0.02 in /  0.5 mm
19:47 34.3 °F /  1.3 °C 32 °F /  0.0 °C 30.2 in /  1021.6 hPa WSW 5 mph /  8.0 km/h 11 mph /  17.7 km/h 91 % 0.02 in /  0.5 mm
19:57 34.3 °F /  1.3 °C 32 °F /  0.0 °C 30.2 in /  1021.6 hPa West 9 mph /  14.5 km/h 12 mph /  19.3 km/h 91 % 0.02 in /  0.5 mm
20:07 34.3 °F /  1.3 °C 32 °F /  0.0 °C 30.2 in /  1021.6 hPa WSW 8 mph /  12.9 km/h 12 mph /  19.3 km/h 91 % 0.02 in /  0.5 mm
20:12 34.3 °F /  1.3 °C 32 °F /  0.0 °C 30.2 in /  1021.6 hPa WSW 5 mph /  8.0 km/h 12 mph /  19.3 km/h 91 % 0.01 in /  0.3 mm
20:22 34.3 °F /  1.3 °C 31.6 °F /  -0.2 °C 30.2 in /  1021.6 hPa WNW 7 mph /  11.3 km/h 11 mph /  17.7 km/h 90 % 0 in /  0.0 mm
20:27 34.5 °F /  1.4 °C 31.6 °F /  -0.2 °C 30.2 in /  1021.6 hPa WNW 6 mph /  9.7 km/h 13 mph /  20.9 km/h 89 % 0 in /  0.0 mm
20:32 34.5 °F /  1.4 °C 31.6 °F /  -0.2 °C 30.2 in /  1021.6 hPa NW 4 mph /  6.4 km/h 14 mph /  22.5 km/h 89 % 0 in /  0.0 mm
20:37 34.5 °F /  1.4 °C 31.6 °F /  -0.2 °C 30.2 in /  1021.6 hPa West 9 mph /  14.5 km/h 14 mph /  22.5 km/h 89 % 0 in /  0.0 mm
20:42 34.5 °F /  1.4 °C 31.6 °F /  -0.2 °C 30.2 in /  1021.6 hPa WNW 2 mph /  3.2 km/h 14 mph /  22.5 km/h 89 % 0 in /  0.0 mm
20:47 34.3 °F /  1.3 °C 31.5 °F /  -0.3 °C 30.2 in /  1021.6 hPa West 2 mph /  3.2 km/h 12 mph /  19.3 km/h 89 % 0 in /  0.0 mm
20:52 34.3 °F /  1.3 °C 31.6 °F /  -0.2 °C 30.2 in /  1021.6 hPa WNW 3 mph /  4.8 km/h 9 mph /  14.5 km/h 90 % 0 in /  0.0 mm
20:57 34.3 °F /  1.3 °C 31.6 °F /  -0.2 °C 30.2 in /  1021.6 hPa West 4 mph /  6.4 km/h 9 mph /  14.5 km/h 90 % 0 in /  0.0 mm
21:02 34.3 °F /  1.3 °C 31.6 °F /  -0.2 °C 30.2 in /  1021.6 hPa West 5 mph /  8.0 km/h 9 mph /  14.5 km/h 90 % 0 in /  0.0 mm
21:12 34.3 °F /  1.3 °C 32 °F /  0.0 °C 30.2 in /  1021.9 hPa WNW 3 mph /  4.8 km/h 15 mph /  24.1 km/h 91 % 0 in /  0.0 mm
21:17 34.3 °F /  1.3 °C 32 °F /  0.0 °C 30.2 in /  1021.9 hPa WNW 7 mph /  11.3 km/h 15 mph /  24.1 km/h 91 % 0 in /  0.0 mm
21:22 34.3 °F /  1.3 °C 32 °F /  0.0 °C 30.2 in /  1021.9 hPa NNW 5 mph /  8.0 km/h 15 mph /  24.1 km/h 91 % 0 in /  0.0 mm
21:27 34.3 °F /  1.3 °C 32 °F /  0.0 °C 30.2 in /  1021.9 hPa West 10 mph /  16.1 km/h 15 mph /  24.1 km/h 91 % 0 in /  0.0 mm
21:37 34.3 °F /  1.3 °C 32 °F /  0.0 °C 30.2 in /  1021.9 hPa West 8 mph /  12.9 km/h 15 mph /  24.1 km/h 91 % 0 in /  0.0 mm
21:42 34.3 °F /  1.3 °C 32 °F /  0.0 °C 30.2 in /  1021.9 hPa WNW 9 mph /  14.5 km/h 15 mph /  24.1 km/h 91 % 0 in /  0.0 mm
21:47 34.3 °F /  1.3 °C 32 °F /  0.0 °C 30.2 in /  1021.9 hPa West 7 mph /  11.3 km/h 13 mph /  20.9 km/h 91 % 0 in /  0.0 mm
21:57 34.5 °F /  1.4 °C 32.2 °F /  0.1 °C 30.2 in /  1021.9 hPa WNW 6 mph /  9.7 km/h 13 mph /  20.9 km/h 91 % 0 in /  0.0 mm
22:02 34.3 °F /  1.3 °C 32 °F /  0.0 °C 30.2 in /  1021.6 hPa West 7 mph /  11.3 km/h 12 mph /  19.3 km/h 91 % 0 in /  0.0 mm
22:12 34.3 °F /  1.3 °C 31.6 °F /  -0.2 °C 30.2 in /  1021.6 hPa WNW 9 mph /  14.5 km/h 17 mph /  27.4 km/h 90 % 0 in /  0.0 mm
22:17 34.2 °F /  1.2 °C 31.5 °F /  -0.3 °C 30.2 in /  1021.6 hPa WNW 7 mph /  11.3 km/h 17 mph /  27.4 km/h 90 % 0 in /  0.0 mm
22:22 34.2 °F /  1.2 °C 31.5 °F /  -0.3 °C 30.2 in /  1021.6 hPa WNW 7 mph /  11.3 km/h 17 mph /  27.4 km/h 90 % 0 in /  0.0 mm
22:27 34.2 °F /  1.2 °C 31.5 °F /  -0.3 °C 30.2 in /  1021.6 hPa West 5 mph /  8.0 km/h 14 mph /  22.5 km/h 90 % 0 in /  0.0 mm
22:37 34.2 °F /  1.2 °C 31.5 °F /  -0.3 °C 30.2 in /  1021.6 hPa WNW 4 mph /  6.4 km/h 12 mph /  19.3 km/h 90 % 0 in /  0.0 mm
22:42 34.2 °F /  1.2 °C 31.5 °F /  -0.3 °C 30.2 in /  1021.9 hPa West 5 mph /  8.0 km/h 13 mph /  20.9 km/h 90 % 0 in /  0.0 mm
22:52 34 °F /  1.1 °C 31.3 °F /  -0.4 °C 30.2 in /  1021.6 hPa NW 3 mph /  4.8 km/h 10 mph /  16.1 km/h 90 % 0 in /  0.0 mm
22:57 34 °F /  1.1 °C 31.3 °F /  -0.4 °C 30.2 in /  1021.6 hPa WNW 10 mph /  16.1 km/h 10 mph /  16.1 km/h 90 % 0 in /  0.0 mm
23:02 34 °F /  1.1 °C 31.3 °F /  -0.4 °C 30.2 in /  1021.6 hPa NW 5 mph /  8.0 km/h 14 mph /  22.5 km/h 90 % 0 in /  0.0 mm
23:12 34 °F /  1.1 °C 31.3 °F /  -0.4 °C 30.2 in /  1021.6 hPa West 10 mph /  16.1 km/h 14 mph /  22.5 km/h 90 % 0 in /  0.0 mm
23:17 33.8 °F /  1.0 °C 31.1 °F /  -0.5 °C 30.2 in /  1021.6 hPa West 5 mph /  8.0 km/h 14 mph /  22.5 km/h 90 % 0 in /  0.0 mm
23:32 33.4 °F /  0.8 °C 31.1 °F /  -0.5 °C 30.2 in /  1021.9 hPa WNW 11 mph /  17.7 km/h 11 mph /  17.7 km/h 91 % 0 in /  0.0 mm
23:37 33.4 °F /  0.8 °C 31.1 °F /  -0.5 °C 30.2 in /  1021.9 hPa WNW 2 mph /  3.2 km/h 13 mph /  20.9 km/h 91 % 0 in /  0.0 mm
23:42 33.4 °F /  0.8 °C 31.3 °F /  -0.4 °C 30.2 in /  1021.9 hPa SW 3 mph /  4.8 km/h 13 mph /  20.9 km/h 92 % 0 in /  0.0 mm
23:47 33.4 °F /  0.8 °C 31.3 °F /  -0.4 °C 30.2 in /  1022.2 hPa WNW 3 mph /  4.8 km/h 12 mph /  19.3 km/h 92 % 0 in /  0.0 mm
23:52 33.4 °F /  0.8 °C 31.3 °F /  -0.4 °C 30.2 in /  1022.2 hPa West 11 mph /  17.7 km/h 11 mph /  17.7 km/h 92 % 0 in /  0.0 mm
23:57 33.6 °F /  0.9 °C 31.5 °F /  -0.3 °C 30.2 in /  1021.9 hPa WNW 7 mph /  11.3 km/h 12 mph /  19.3 km/h 92 % 0 in /  0.0 mm
Meteo18
Compliments of Weather Underground - 4 mb

Script developed by  Jim McMurry - jmcmurry@mwt.net Adapted for the template by  Wim van der Kuil - Leuven-Template.eu

You find our weather info also at:

European Weather Network

Weather Underground

Equipment we use:

Weather-station
Davis Vue

Weather-program
Meteohub

Weather-server
Raspberry PI 2 B+

Provider
1 and 1

Davis Vue

Meteohub

Raspberry PI 2 B+

1 and 1